This is the latest recevied weather packets stored in our database for station/object BM2MWA-13. If no packets are shown the sender has not sent any weather packets the latest 10 day(s).
| Time | Temp. | Humidity | Pressure | Rain* | Wind** | Luminosity | Snow |
|---|---|---|---|---|---|---|---|
| 1777795623 | 29.44° C | 70% | 1005.1 hPa | 0 mm | - | - | - |
| 1777795024 | 29.44° C | 69% | 1005.2 hPa | 0 mm | - | - | - |
| 1777794424 | 29.44° C | 70% | 1005.3 hPa | 0 mm | - | - | - |
| 1777793824 | 29.44° C | 70% | 1005.4 hPa | 0 mm | - | - | - |
| 1777793223 | 29.44° C | 68% | 1005.4 hPa | 0 mm | - | - | - |
| 1777792624 | 30° C | 66% | 1005.4 hPa | 0 mm | - | - | - |
| 1777792024 | 30° C | 66% | 1005.4 hPa | 0 mm | - | - | - |
| 1777791423 | 30° C | 66% | 1005.5 hPa | 0 mm | - | - | - |
| 1777790824 | 30° C | 68% | 1005.4 hPa | 0 mm | - | - | - |
| 1777790225 | 30° C | 68% | 1005.7 hPa | 0 mm | - | - | - |
| 1777789623 | 30° C | 67% | 1005.7 hPa | 0 mm | - | - | - |
| 1777789023 | 30° C | 67% | 1005.8 hPa | 0 mm | - | - | - |
| 1777788424 | 31.11° C | 65% | 1005.8 hPa | 0 mm | - | - | - |
| 1777787824 | 30.56° C | 64% | 1005.8 hPa | 0 mm | - | - | - |
| 1777787223 | 30.56° C | 65% | 1005.8 hPa | 0 mm | - | - | - |
| 1777786624 | 30.56° C | 64% | 1005.9 hPa | 0 mm | - | - | - |
| 1777786024 | 31.11° C | 63% | 1005.9 hPa | 0 mm | - | - | - |
| 1777785423 | 31.11° C | 62% | 1005.9 hPa | 0 mm | - | - | - |
| 1777784823 | 30.56° C | 64% | 1006 hPa | 0 mm | - | - | - |
| 1777784224 | 31.11° C | 63% | 1006.2 hPa | 0 mm | - | - | - |
| 1777783623 | 31.11° C | 64% | 1006.3 hPa | 0 mm | - | - | - |
| 1777783023 | 30.56° C | 64% | 1006.2 hPa | 0 mm | - | - | - |
| 1777782425 | 30° C | 67% | 1006.1 hPa | 0 mm | - | - | - |
| 1777781825 | 29.44° C | 69% | 1006.2 hPa | 0 mm | - | - | - |
| 1777781224 | 28.89° C | 70% | 1006.3 hPa | 0 mm | - | - | - |
* Rain latest hour (hover to see other rain measurements)
** Current wind speed in m/s (hover to see current wind gust speed)